Time;durP1;ratioP1;P1;durP2;ratioP2;P2;SDS_P1;SDS_P2;PMS_P1;PMS_P2;Temp;Humidity;BMP_temperature;BMP_pressure;BME280_temperature;BME280_humidity;BME280_pressure;Samples;Min_cycle;Max_cycle;Signal;HPM_P1;HPM_P2
2022/10/14 00:01:41;;;;;;;13.90;5.53;;;9.40;99.90;;;;;;5026964;28;20030;-94
2022/10/14 00:04:07;;;;;;;16.98;4.88;;;9.40;99.90;;;;;;5030025;28;20026;-94
2022/10/14 00:06:33;;;;;;;13.02;4.90;;;9.40;99.90;;;;;;5010624;28;20034;-95
2022/10/14 00:09:03;;;;;;;11.52;4.63;;;9.50;99.90;;;;;;5023426;28;20060;-95
2022/10/14 00:11:30;;;;;;;17.67;5.88;;;9.50;99.90;;;;;;5026743;28;20017;-95
2022/10/14 00:13:59;;;;;;;17.52;5.05;;;9.50;99.90;;;;;;5031135;28;20112;-95
2022/10/14 00:16:46;;;;;;;15.25;5.35;;;9.50;99.90;;;;;;5026266;28;20026;-93
2022/10/14 00:19:13;;;;;;;11.50;4.80;;;9.60;99.90;;;;;;5021913;28;20101;-95
2022/10/14 00:21:42;;;;;;;13.70;5.03;;;9.60;99.90;;;;;;5032942;28;20018;-96
2022/10/14 00:24:10;;;;;;;16.55;6.45;;;9.60;99.90;;;;;;5030606;28;20046;-95
2022/10/14 00:26:39;;;;;;;10.98;4.93;;;9.60;99.90;;;;;;5032542;28;20033;-95
2022/10/14 00:29:08;;;;;;;13.40;5.20;;;9.60;99.90;;;;;;5030186;28;20034;-95
2022/10/14 00:31:34;;;;;;;12.30;5.75;;;9.60;99.90;;;;;;5030007;28;20010;-92
2022/10/14 00:34:00;;;;;;;14.95;5.15;;;9.50;99.90;;;;;;5013342;28;20046;-93
2022/10/14 00:36:26;;;;;;;18.38;4.85;;;9.60;99.90;;;;;;5004982;28;20030;-95
2022/10/14 00:38:53;;;;;;;14.93;6.05;;;9.60;99.90;;;;;;4989541;28;20033;-95
2022/10/14 00:41:23;;;;;;;13.95;4.72;;;9.60;99.90;;;;;;4989195;28;20026;-95
2022/10/14 00:43:57;;;;;;;11.18;5.28;;;9.60;99.90;;;;;;5010031;28;20120;-94
2022/10/14 00:46:25;;;;;;;9.88;6.25;;;9.60;99.90;;;;;;5015431;28;20126;-92
2022/10/14 00:48:51;;;;;;;14.10;5.78;;;9.60;99.90;;;;;;5014782;28;20038;-94
2022/10/14 00:51:18;;;;;;;13.85;4.97;;;9.60;99.90;;;;;;5019122;28;20013;-92
2022/10/14 00:53:45;;;;;;;14.10;5.40;;;9.60;99.90;;;;;;5019037;28;20024;-93
2022/10/14 00:56:14;;;;;;;13.85;5.70;;;9.60;99.90;;;;;;5014562;28;20101;-95
2022/10/14 00:58:42;;;;;;;13.43;4.30;;;9.60;99.90;;;;;;5017399;28;20010;-95
2022/10/14 01:01:08;;;;;;;11.38;4.30;;;9.50;99.90;;;;;;5018815;28;20097;-96
2022/10/14 01:03:36;;;;;;;8.90;4.05;;;9.60;99.90;;;;;;5019040;28;20133;-93
2022/10/14 01:06:39;;;;;;;16.67;5.50;;;9.60;99.90;;;;;;5019538;28;20029;-94
2022/10/14 01:09:24;;;;;;;23.38;5.90;;;9.70;99.90;;;;;;4999109;28;20043;-94
2022/10/14 01:12:48;;;;;;;10.07;4.30;;;9.70;99.90;;;;;;5016985;28;20092;-94
2022/10/14 01:15:23;;;;;;;9.43;5.00;;;9.70;99.90;;;;;;4957053;29;20035;-90
2022/10/14 01:18:07;;;;;;;12.13;4.70;;;9.60;99.90;;;;;;4957356;29;20131;-95
2022/10/14 01:21:08;;;;;;;15.48;5.40;;;9.70;99.90;;;;;;4956899;29;20032;-93
2022/10/14 01:23:45;;;;;;;11.82;4.35;;;9.60;99.90;;;;;;4941316;29;20028;-93
2022/10/14 01:26:35;;;;;;;8.85;3.58;;;9.70;99.90;;;;;;4941523;29;20031;-94
2022/10/14 01:29:38;;;;;;;9.93;3.85;;;9.70;99.90;;;;;;4938700;29;20046;-93
2022/10/14 01:32:15;;;;;;;13.05;4.75;;;9.80;99.90;;;;;;4951888;29;20090;-95
2022/10/14 01:34:50;;;;;;;21.13;5.70;;;9.80;99.90;;;;;;4930729;29;20032;-94
2022/10/14 01:37:22;;;;;;;10.82;3.80;;;9.80;99.90;;;;;;4947195;29;20028;-95
2022/10/14 01:39:55;;;;;;;9.30;4.00;;;9.80;99.90;;;;;;4933397;29;20039;-96
2022/10/14 01:42:26;;;;;;;15.43;5.10;;;9.80;99.90;;;;;;4928579;29;20043;-96
2022/10/14 01:45:07;;;;;;;10.23;3.40;;;9.80;99.90;;;;;;4938503;28;20034;-96
2022/10/14 01:47:35;;;;;;;12.02;4.13;;;9.80;99.90;;;;;;4997095;28;20054;-96
2022/10/14 01:50:22;;;;;;;14.00;4.50;;;9.80;99.90;;;;;;4995598;28;20031;-95
2022/10/14 01:53:06;;;;;;;7.63;3.60;;;9.90;99.90;;;;;;4994762;28;20044;-95
2022/10/14 01:55:36;;;;;;;11.18;3.83;;;9.90;99.90;;;;;;4996326;28;20038;-96
2022/10/14 01:58:04;;;;;;;10.60;3.85;;;9.90;99.90;;;;;;4994844;28;20054;-94
2022/10/14 02:00:30;;;;;;;11.10;3.20;;;9.90;99.90;;;;;;4993900;28;20078;-93
2022/10/14 02:02:55;;;;;;;14.68;4.57;;;9.90;99.90;;;;;;4994872;28;20022;-93
2022/10/14 02:05:36;;;;;;;19.60;4.97;;;9.90;99.90;;;;;;5011064;28;20046;-93
2022/10/14 02:08:31;;;;;;;14.13;5.70;;;9.90;99.90;;;;;;5008755;28;20038;-93
2022/10/14 02:11:08;;;;;;;10.35;3.28;;;9.80;99.90;;;;;;5000021;28;20023;-92
2022/10/14 02:14:00;;;;;;;15.82;4.95;;;9.80;99.90;;;;;;4997333;28;20046;-95
2022/10/14 02:16:57;;;;;;;17.77;4.90;;;9.80;99.90;;;;;;4996601;28;20026;-93
2022/10/14 02:19:51;;;;;;;13.13;5.05;;;9.80;99.90;;;;;;5013877;28;20025;-95
2022/10/14 02:22:27;;;;;;;13.27;4.72;;;9.70;99.90;;;;;;5004513;28;20034;-96
2022/10/14 02:24:58;;;;;;;11.73;4.65;;;9.80;99.90;;;;;;4999034;28;20100;-95
2022/10/14 02:27:27;;;;;;;11.02;3.97;;;9.70;99.90;;;;;;4996009;28;20038;-95
2022/10/14 02:29:55;;;;;;;12.32;4.47;;;9.70;99.90;;;;;;4995486;28;20054;-95
2022/10/14 02:32:23;;;;;;;7.65;4.00;;;9.70;99.90;;;;;;4993600;28;20030;-95
2022/10/14 02:34:51;;;;;;;11.90;4.57;;;9.70;99.90;;;;;;5000831;28;20090;-95
2022/10/14 02:37:18;;;;;;;14.88;5.78;;;9.70;99.90;;;;;;4999271;28;20060;-95
2022/10/14 02:39:52;;;;;;;10.77;4.15;;;9.70;99.90;;;;;;5000550;28;20035;-94
2022/10/14 02:42:18;;;;;;;9.10;3.85;;;9.70;99.90;;;;;;5001758;28;20046;-95
2022/10/14 02:44:54;;;;;;;13.50;3.63;;;9.60;99.90;;;;;;5001411;28;20625;-95
2022/10/14 02:47:21;;;;;;;8.93;3.42;;;9.60;99.90;;;;;;5003616;28;20066;-95
2022/10/14 02:49:46;;;;;;;9.98;3.95;;;9.70;99.90;;;;;;5002133;28;20299;-96
2022/10/14 02:52:12;;;;;;;9.60;3.20;;;9.70;99.90;;;;;;4998626;28;20065;-95
2022/10/14 02:54:38;;;;;;;12.05;3.50;;;9.80;99.90;;;;;;5001631;28;20352;-96
2022/10/14 02:57:04;;;;;;;10.52;3.80;;;9.80;99.90;;;;;;5011426;28;20086;-93
2022/10/14 02:59:29;;;;;;;12.55;4.43;;;9.90;99.90;;;;;;5012976;28;20023;-94
2022/10/14 03:01:57;;;;;;;9.35;4.57;;;9.90;99.90;;;;;;5013696;28;20026;-95
2022/10/14 03:04:27;;;;;;;11.50;3.65;;;10.00;99.90;;;;;;5010283;28;20053;-92
2022/10/14 03:06:53;;;;;;;10.25;3.13;;;10.00;99.90;;;;;;4995400;28;20014;-94
2022/10/14 03:09:21;;;;;;;10.27;3.28;;;9.90;99.90;;;;;;4997260;28;20018;-95
2022/10/14 03:11:47;;;;;;;11.60;3.55;;;9.90;99.90;;;;;;4997068;28;20026;-94
2022/10/14 03:14:13;;;;;;;10.95;3.58;;;10.00;99.90;;;;;;4991620;28;20069;-95
2022/10/14 03:16:38;;;;;;;7.95;3.38;;;10.00;99.90;;;;;;4987799;28;20056;-94
2022/10/14 03:19:04;;;;;;;20.77;3.92;;;10.00;99.90;;;;;;4990074;28;20041;-95
2022/10/14 03:21:30;;;;;;;8.02;3.00;;;10.00;99.90;;;;;;4992491;28;20057;-95
2022/10/14 03:23:56;;;;;;;9.45;3.10;;;10.00;99.90;;;;;;4992267;28;20090;-95
2022/10/14 03:26:25;;;;;;;12.02;3.47;;;10.00;99.90;;;;;;4992488;28;20026;-94
2022/10/14 03:28:52;;;;;;;8.90;3.58;;;10.00;99.90;;;;;;4995921;28;20436;-96
2022/10/14 03:31:18;;;;;;;8.02;3.50;;;10.10;99.90;;;;;;4994659;28;20121;-94
2022/10/14 03:33:44;;;;;;;17.25;4.03;;;10.10;99.90;;;;;;4990214;28;20030;-94
2022/10/14 03:36:11;;;;;;;10.15;3.83;;;10.20;99.90;;;;;;4993497;28;20119;-91
2022/10/14 03:38:36;;;;;;;7.75;3.83;;;10.20;99.90;;;;;;4995546;28;20026;-94
2022/10/14 03:41:02;;;;;;;9.50;3.67;;;10.20;99.90;;;;;;5010031;28;20058;-94
2022/10/14 03:43:28;;;;;;;14.57;3.80;;;10.20;99.90;;;;;;5009113;28;20127;-95
2022/10/14 03:45:54;;;;;;;10.55;2.88;;;10.20;99.90;;;;;;5007223;28;20046;-94
2022/10/14 03:48:20;;;;;;;9.13;3.17;;;10.30;99.90;;;;;;5010303;28;20054;-94
2022/10/14 03:50:46;;;;;;;7.57;3.45;;;10.30;99.90;;;;;;5007197;28;20062;-94
2022/10/14 03:53:12;;;;;;;12.82;3.58;;;10.30;99.90;;;;;;5009041;28;20106;-95
2022/10/14 03:55:37;;;;;;;16.20;4.00;;;10.30;99.90;;;;;;5009884;28;20059;-94
2022/10/14 03:58:03;;;;;;;10.85;3.50;;;10.30;99.90;;;;;;5008164;28;20026;-93
2022/10/14 04:00:30;;;;;;;8.63;3.58;;;10.40;99.90;;;;;;5010374;28;20019;-95
2022/10/14 04:02:56;;;;;;;10.32;3.63;;;10.40;99.90;;;;;;5017436;28;20030;-94
2022/10/14 04:05:22;;;;;;;9.95;3.58;;;10.40;99.90;;;;;;5020074;28;20041;-91
2022/10/14 04:07:47;;;;;;;11.38;3.65;;;10.50;99.90;;;;;;5018546;28;20027;-92
2022/10/14 04:10:13;;;;;;;8.57;3.03;;;10.50;99.90;;;;;;4998618;28;20045;-92
2022/10/14 04:12:39;;;;;;;12.18;3.10;;;10.50;99.90;;;;;;4995385;28;20053;-95
2022/10/14 04:15:06;;;;;;;7.20;3.10;;;10.50;99.90;;;;;;4989128;28;20310;-94
2022/10/14 04:17:32;;;;;;;6.75;3.65;;;10.50;99.90;;;;;;4992126;28;20033;-94
2022/10/14 04:19:58;;;;;;;12.77;3.92;;;10.60;99.90;;;;;;4986610;28;20050;-94
2022/10/14 04:22:23;;;;;;;7.07;3.13;;;10.70;99.90;;;;;;4984260;28;20041;-94
2022/10/14 04:24:49;;;;;;;10.40;3.70;;;10.70;99.90;;;;;;4987039;28;20054;-95
2022/10/14 04:27:16;;;;;;;24.15;4.50;;;10.70;99.90;;;;;;4991450;28;20042;-92
2022/10/14 04:29:42;;;;;;;8.30;3.20;;;10.70;99.90;;;;;;4999446;28;20030;-93
2022/10/14 04:32:08;;;;;;;10.57;3.42;;;10.70;99.90;;;;;;4981943;28;20026;-93
2022/10/14 04:34:33;;;;;;;6.32;2.90;;;10.80;99.90;;;;;;4996345;28;20033;-95
2022/10/14 04:36:59;;;;;;;6.03;3.15;;;10.80;99.90;;;;;;4996730;28;20027;-94
2022/10/14 04:39:26;;;;;;;6.30;2.83;;;10.80;99.90;;;;;;5008412;28;20052;-96
2022/10/14 04:41:52;;;;;;;8.65;3.35;;;10.80;99.90;;;;;;5018454;28;20045;-94
2022/10/14 04:44:20;;;;;;;10.52;3.53;;;10.90;99.90;;;;;;5015804;28;20101;-93
2022/10/14 04:46:46;;;;;;;9.18;4.38;;;10.90;99.90;;;;;;5013042;28;20041;-94
2022/10/14 04:49:13;;;;;;;12.90;4.28;;;10.90;99.90;;;;;;5008109;28;20041;-96
2022/10/14 04:51:39;;;;;;;10.00;5.30;;;10.90;99.90;;;;;;5011459;28;20126;-94
2022/10/14 04:54:05;;;;;;;17.00;5.50;;;11.00;99.90;;;;;;5011010;28;20072;-94
2022/10/14 04:56:30;;;;;;;8.55;3.83;;;11.00;99.90;;;;;;5004267;28;20046;-95
2022/10/14 04:58:56;;;;;;;15.30;4.60;;;11.00;99.90;;;;;;5011003;28;20469;-95
2022/10/14 05:01:21;;;;;;;12.73;5.32;;;11.10;99.90;;;;;;5000869;28;20042;-94
2022/10/14 05:03:47;;;;;;;13.07;4.30;;;11.00;99.90;;;;;;4995908;28;20093;-94
2022/10/14 05:06:13;;;;;;;11.25;5.32;;;11.10;99.90;;;;;;4995669;28;20038;-93
2022/10/14 05:08:38;;;;;;;12.32;4.25;;;11.10;99.90;;;;;;4995132;28;20097;-94
2022/10/14 05:11:04;;;;;;;9.55;4.20;;;11.10;99.90;;;;;;4997296;28;20030;-94
2022/10/14 05:13:30;;;;;;;10.65;4.50;;;11.10;99.90;;;;;;4989468;28;20459;-95
2022/10/14 05:15:56;;;;;;;9.93;5.00;;;11.10;99.90;;;;;;4987457;28;20114;-92
2022/10/14 05:18:22;;;;;;;10.18;5.25;;;11.10;99.90;;;;;;4999023;28;20040;-92
2022/10/14 05:20:48;;;;;;;12.55;5.70;;;11.10;99.90;;;;;;5000038;28;20025;-92
2022/10/14 05:23:14;;;;;;;11.02;5.80;;;11.20;99.90;;;;;;5001200;28;20022;-93
2022/10/14 05:25:41;;;;;;;10.90;4.97;;;11.10;99.90;;;;;;5000709;28;20078;-92
2022/10/14 05:28:10;;;;;;;12.57;6.07;;;11.10;99.90;;;;;;5000167;28;20030;-94
2022/10/14 05:30:36;;;;;;;15.00;5.70;;;11.20;99.90;;;;;;4999578;28;20035;-92
2022/10/14 05:33:03;;;;;;;14.48;5.50;;;11.20;99.90;;;;;;4983834;28;20038;-93
2022/10/14 05:35:28;;;;;;;13.32;6.93;;;11.20;99.90;;;;;;5001586;28;20030;-96
2022/10/14 05:37:55;;;;;;;9.85;6.55;;;11.20;99.90;;;;;;5009672;28;20098;-93
2022/10/14 05:40:22;;;;;;;13.40;7.20;;;11.20;99.90;;;;;;5002690;28;20058;-94
2022/10/14 05:42:48;;;;;;;10.43;7.53;;;11.20;99.90;;;;;;5003901;28;20141;-94
2022/10/14 05:45:14;;;;;;;13.93;6.25;;;11.30;99.90;;;;;;4975422;28;20034;-95
2022/10/14 05:47:43;;;;;;;10.52;6.47;;;11.30;99.90;;;;;;4989777;28;20054;-95
2022/10/14 05:50:09;;;;;;;15.10;7.40;;;11.30;99.90;;;;;;4993160;28;20078;-93
2022/10/14 05:52:35;;;;;;;10.32;6.63;;;11.30;99.90;;;;;;4998531;28;20038;-95
2022/10/14 05:55:01;;;;;;;9.88;6.93;;;11.30;99.90;;;;;;4995520;28;20185;-95
2022/10/14 05:57:27;;;;;;;10.05;5.65;;;11.30;99.90;;;;;;4987267;28;20113;-93
2022/10/14 05:59:53;;;;;;;11.02;5.30;;;11.30;99.90;;;;;;4989428;28;20041;-95
2022/10/14 06:02:19;;;;;;;13.43;7.50;;;11.30;99.90;;;;;;4995501;28;20022;-93
2022/10/14 06:04:45;;;;;;;14.20;6.70;;;11.30;99.90;;;;;;4998635;28;20034;-95
2022/10/14 06:07:11;;;;;;;10.18;6.40;;;11.30;99.90;;;;;;4997848;28;20041;-95
2022/10/14 06:09:38;;;;;;;13.50;6.15;;;11.30;99.90;;;;;;4998583;28;20140;-94
2022/10/14 06:12:04;;;;;;;9.98;5.50;;;11.20;99.90;;;;;;4998903;28;20018;-93
2022/10/14 06:14:30;;;;;;;11.98;6.03;;;11.20;99.90;;;;;;4997806;28;20098;-94
2022/10/14 06:16:55;;;;;;;10.27;5.32;;;11.20;99.90;;;;;;4999314;28;20038;-94
2022/10/14 06:19:23;;;;;;;8.15;4.68;;;11.20;99.90;;;;;;4999362;28;20022;-95
2022/10/14 06:21:51;;;;;;;7.40;4.57;;;11.20;99.90;;;;;;4998992;28;20018;-95
2022/10/14 06:24:21;;;;;;;11.80;4.55;;;11.10;99.90;;;;;;5012414;28;20051;-94
2022/10/14 06:26:47;;;;;;;14.52;5.60;;;11.20;99.90;;;;;;5014333;28;20093;-94
2022/10/14 06:29:13;;;;;;;12.80;4.75;;;11.10;99.90;;;;;;5016164;28;20029;-94
2022/10/14 06:31:49;;;;;;;9.10;4.15;;;11.10;99.90;;;;;;5018131;28;20014;-95
2022/10/14 06:34:16;;;;;;;10.75;4.63;;;11.10;99.90;;;;;;5024695;28;20034;-94
2022/10/14 06:36:41;;;;;;;10.32;4.38;;;11.10;99.90;;;;;;5022420;28;20049;-92
2022/10/14 06:39:08;;;;;;;12.43;4.60;;;11.10;99.90;;;;;;5017067;28;20030;-94
2022/10/14 06:41:34;;;;;;;10.27;4.05;;;11.10;99.90;;;;;;5014008;28;20030;-94
2022/10/14 06:44:00;;;;;;;6.90;4.22;;;11.10;99.90;;;;;;4998832;28;20046;-94
2022/10/14 06:46:26;;;;;;;12.57;4.88;;;11.10;99.90;;;;;;4997797;28;20027;-94
2022/10/14 06:48:54;;;;;;;6.20;3.90;;;11.10;99.90;;;;;;4993283;28;20045;-93
2022/10/14 06:52:03;;;;;;;10.32;4.95;;;11.10;99.90;;;;;;4982987;28;20030;-96
2022/10/14 06:54:31;;;;;;;9.52;5.20;;;11.10;99.90;;;;;;4905957;29;20036;-93
2022/10/14 06:56:56;;;;;;;7.90;4.90;;;11.10;99.90;;;;;;4899867;29;20040;-94
2022/10/14 06:59:22;;;;;;;11.38;4.28;;;11.10;99.90;;;;;;4902466;29;20035;-93
2022/10/14 07:01:48;;;;;;;14.85;4.57;;;11.10;99.90;;;;;;4906027;29;20032;-93
2022/10/14 07:04:14;;;;;;;8.15;4.05;;;11.10;99.90;;;;;;4909485;29;20025;-95
2022/10/14 07:06:42;;;;;;;8.10;4.00;;;11.10;99.90;;;;;;4912260;29;20024;-95
2022/10/14 07:09:20;;;;;;;11.20;3.92;;;11.20;99.90;;;;;;4912469;29;20024;-95
2022/10/14 07:11:46;;;;;;;5.80;3.22;;;11.20;99.90;;;;;;4917155;29;20092;-92
2022/10/14 07:14:12;;;;;;;6.00;3.30;;;11.20;99.90;;;;;;4901814;29;20012;-94
2022/10/14 07:16:37;;;;;;;9.00;4.07;;;11.20;99.90;;;;;;4921071;29;20048;-93
2022/10/14 07:19:03;;;;;;;8.13;3.70;;;11.20;99.90;;;;;;4912856;29;20135;-92
2022/10/14 07:21:30;;;;;;;9.43;4.10;;;11.20;99.90;;;;;;4916544;29;20035;-92
2022/10/14 07:23:55;;;;;;;8.60;4.03;;;11.30;99.90;;;;;;4913380;29;20060;-96
2022/10/14 07:26:21;;;;;;;11.65;3.60;;;11.30;99.90;;;;;;4916655;29;20048;-95
2022/10/14 07:28:47;;;;;;;9.73;3.45;;;11.30;99.90;;;;;;4922255;28;20818;-95
2022/10/14 07:31:12;;;;;;;6.15;3.10;;;11.30;99.90;;;;;;4989059;28;20029;-94
2022/10/14 07:33:39;;;;;;;7.07;2.78;;;11.30;99.90;;;;;;4996769;28;20022;-93
2022/10/14 07:36:09;;;;;;;11.95;3.78;;;11.40;99.90;;;;;;4997834;28;20037;-96
2022/10/14 07:38:36;;;;;;;6.18;2.75;;;11.40;99.90;;;;;;4998116;28;20042;-95
2022/10/14 07:41:15;;;;;;;11.02;3.08;;;11.50;99.90;;;;;;4986281;28;20026;-94
2022/10/14 07:43:47;;;;;;;5.27;2.67;;;11.50;99.90;;;;;;5034553;28;20054;-94
2022/10/14 07:46:15;;;;;;;8.77;2.40;;;11.50;99.90;;;;;;5038715;28;20036;-96
2022/10/14 07:48:41;;;;;;;4.57;2.15;;;11.50;99.90;;;;;;5014253;28;20038;-96
2022/10/14 07:51:09;;;;;;;7.65;2.70;;;11.50;99.90;;;;;;5022214;28;20041;-94
2022/10/14 07:53:35;;;;;;;7.55;2.47;;;11.50;99.90;;;;;;5007414;28;20022;-95
2022/10/14 07:56:02;;;;;;;8.73;1.90;;;11.50;99.90;;;;;;5020429;28;20019;-94
2022/10/14 07:58:30;;;;;;;5.40;2.10;;;11.50;99.90;;;;;;5005840;28;20032;-95
2022/10/14 08:00:56;;;;;;;5.43;2.20;;;11.50;99.90;;;;;;5007420;28;20471;-95
2022/10/14 08:03:25;;;;;;;7.22;2.00;;;11.50;99.90;;;;;;5016270;28;20053;-91
2022/10/14 08:05:58;;;;;;;6.68;2.47;;;11.50;99.90;;;;;;5012827;28;20034;-94
2022/10/14 08:08:24;;;;;;;4.55;2.33;;;11.50;99.90;;;;;;5008048;28;20054;-94
2022/10/14 08:11:04;;;;;;;7.28;2.58;;;11.50;99.90;;;;;;5009820;28;20045;-95
2022/10/14 08:13:30;;;;;;;5.68;2.33;;;11.50;99.90;;;;;;5004590;28;20066;-93
2022/10/14 08:15:56;;;;;;;7.32;2.25;;;11.50;99.90;;;;;;5010313;28;20034;-95
2022/10/14 08:18:24;;;;;;;6.43;2.67;;;11.50;99.90;;;;;;5005449;28;20052;-95
2022/10/14 08:20:50;;;;;;;8.35;2.72;;;11.50;99.90;;;;;;5008071;28;20050;-93
2022/10/14 08:23:16;;;;;;;10.18;3.00;;;11.60;99.90;;;;;;5008463;28;20022;-95
2022/10/14 08:25:42;;;;;;;5.70;2.65;;;11.60;99.90;;;;;;5004079;28;20113;-95
2022/10/14 08:28:08;;;;;;;5.68;2.00;;;11.70;99.90;;;;;;5011951;28;20045;-94
2022/10/14 08:30:34;;;;;;;8.25;2.88;;;11.70;99.90;;;;;;5008932;28;20038;-94
2022/10/14 08:33:00;;;;;;;5.72;2.50;;;11.80;99.90;;;;;;5016016;28;20037;-94
2022/10/14 08:35:26;;;;;;;6.70;2.80;;;11.90;99.90;;;;;;5015836;28;20034;-92
2022/10/14 08:38:02;;;;;;;5.88;1.98;;;11.90;99.90;;;;;;5018907;28;20033;-94
2022/10/14 08:40:42;;;;;;;8.65;2.33;;;12.00;99.90;;;;;;5007075;28;20057;-94
2022/10/14 08:43:38;;;;;;;7.43;2.17;;;12.20;99.90;;;;;;5009460;28;20046;-94
2022/10/14 08:46:24;;;;;;;6.80;2.92;;;12.20;99.90;;;;;;5008650;28;20033;-94
2022/10/14 08:48:58;;;;;;;4.47;1.80;;;12.30;99.90;;;;;;5013760;28;20088;-93
2022/10/14 08:51:29;;;;;;;7.40;2.00;;;12.40;99.90;;;;;;5019288;28;20081;-94
2022/10/14 08:53:58;;;;;;;;;;;12.60;99.90;;;;;;5013556;28;20034;-93
2022/10/14 08:56:23;;;;;;;5.00;1.30;;;12.60;99.90;;;;;;4994992;28;19908;-96
2022/10/14 08:58:52;;;;;;;2.83;1.50;;;12.70;99.90;;;;;;5010647;28;20038;-95
2022/10/14 09:01:25;;;;;;;8.35;1.40;;;12.80;99.90;;;;;;4991197;28;20053;-96
2022/10/14 09:04:11;;;;;;;2.38;0.98;;;12.90;99.90;;;;;;4995998;28;20034;-95
2022/10/14 09:06:41;;;;;;;3.25;0.90;;;13.00;99.90;;;;;;5007153;28;20049;-95
2022/10/14 09:09:19;;;;;;;1.73;0.85;;;13.00;99.90;;;;;;5016703;28;20022;-95
2022/10/14 09:11:52;;;;;;;3.17;1.05;;;13.00;99.90;;;;;;5033371;28;20029;-95
2022/10/14 09:14:24;;;;;;;3.08;1.17;;;13.10;99.90;;;;;;5019752;28;20029;-94
2022/10/14 09:16:56;;;;;;;4.45;1.00;;;13.00;99.90;;;;;;4998635;28;20049;-93
2022/10/14 09:19:33;;;;;;;5.05;1.33;;;13.00;99.90;;;;;;5015453;28;20113;-95
2022/10/14 09:22:00;;;;;;;4.13;1.10;;;13.00;99.90;;;;;;5015936;28;20017;-95
2022/10/14 09:24:36;;;;;;;4.32;1.65;;;13.00;99.90;;;;;;5000399;28;20037;-94
2022/10/14 09:27:09;;;;;;;6.50;1.20;;;13.10;99.90;;;;;;5014155;28;20030;-94
2022/10/14 09:30:03;;;;;;;6.47;1.10;;;13.10;99.90;;;;;;5011680;28;20021;-95
2022/10/14 09:32:46;;;;;;;3.30;1.05;;;13.30;99.90;;;;;;5013098;28;20085;-94
2022/10/14 09:35:30;;;;;;;5.15;1.00;;;13.60;99.90;;;;;;5012329;28;20022;-96
2022/10/14 09:37:56;;;;;;;5.60;0.90;;;13.90;99.90;;;;;;5004445;28;20503;-94
2022/10/14 09:40:32;;;;;;;5.13;1.00;;;14.30;99.90;;;;;;4992526;28;20034;-94
2022/10/14 09:43:09;;;;;;;4.25;1.10;;;14.60;99.90;;;;;;4989272;28;20090;-95
2022/10/14 09:45:53;;;;;;;7.63;1.45;;;15.00;99.90;;;;;;4990304;28;20054;-95
2022/10/14 09:48:46;;;;;;;4.68;0.98;;;15.30;99.90;;;;;;4986533;28;20050;-95
2022/10/14 09:51:21;;;;;;;7.80;1.08;;;15.50;99.90;;;;;;4995527;28;20015;-95
2022/10/14 09:53:58;;;;;;;2.92;0.90;;;15.70;99.90;;;;;;4997442;28;20023;-93
2022/10/14 09:56:32;;;;;;;4.28;1.10;;;16.00;99.90;;;;;;4997544;28;20043;-92
2022/10/14 09:58:58;;;;;;;4.95;1.35;;;16.20;99.90;;;;;;4997508;28;20042;-94
2022/10/14 10:01:26;;;;;;;9.85;1.58;;;16.50;99.90;;;;;;4990877;28;20027;-95
2022/10/14 10:03:54;;;;;;;5.45;0.90;;;16.70;99.90;;;;;;4986833;28;20026;-95
2022/10/14 10:06:26;;;;;;;4.70;1.55;;;17.00;99.90;;;;;;4988208;28;20484;-95
2022/10/14 10:08:59;;;;;;;7.93;1.50;;;17.20;99.90;;;;;;5002324;28;20069;-94
2022/10/14 10:11:36;;;;;;;9.98;1.20;;;17.50;99.10;;;;;;5007557;28;20026;-94
2022/10/14 10:14:32;;;;;;;4.50;0.98;;;17.60;96.60;;;;;;5007363;28;20092;-95
2022/10/14 10:17:07;;;;;;;3.03;1.05;;;17.60;95.40;;;;;;4993310;28;20177;-96
2022/10/14 10:19:44;;;;;;;3.85;1.10;;;17.80;94.80;;;;;;5007737;28;20069;-96
2022/10/14 10:22:35;;;;;;;6.95;1.20;;;17.90;94.00;;;;;;5013309;28;20038;-96
2022/10/14 10:25:06;;;;;;;5.05;1.30;;;17.90;92.60;;;;;;5011051;28;20107;-95
2022/10/14 10:27:35;;;;;;;8.32;1.10;;;17.90;92.70;;;;;;5011013;28;20042;-95
2022/10/14 10:30:20;;;;;;;4.78;1.05;;;18.10;92.70;;;;;;5012234;28;20023;-96
2022/10/14 10:33:17;;;;;;;3.85;0.90;;;18.40;92.40;;;;;;5009870;28;20026;-96
2022/10/14 10:36:14;;;;;;;7.68;1.38;;;18.70;91.50;;;;;;5011398;28;20046;-96
2022/10/14 10:39:01;;;;;;;5.43;1.75;;;19.00;90.60;;;;;;4992058;28;20022;-92
2022/10/14 10:41:57;;;;;;;9.57;1.40;;;19.20;89.40;;;;;;4999747;28;20074;-93
2022/10/14 10:44:39;;;;;;;8.85;1.20;;;19.40;87.70;;;;;;4989482;28;20062;-94
2022/10/14 10:47:17;;;;;;;7.45;1.10;;;19.50;86.00;;;;;;4995331;28;20023;-95
2022/10/14 10:49:54;;;;;;;6.00;0.98;;;19.60;84.50;;;;;;4973963;28;20039;-94
2022/10/14 10:52:58;;;;;;;2.60;1.08;;;19.70;84.00;;;;;;4962534;28;20472;-95
2022/10/14 10:55:30;;;;;;;9.27;1.27;;;19.90;82.50;;;;;;4962776;28;20035;-94
2022/10/14 10:58:17;;;;;;;7.00;1.13;;;19.90;81.90;;;;;;4962180;28;20027;-94
2022/10/14 11:01:09;;;;;;;4.55;0.80;;;20.10;81.20;;;;;;4962171;28;20034;-95
2022/10/14 11:03:58;;;;;;;5.03;1.70;;;20.30;80.70;;;;;;4923498;28;20035;-94
2022/10/14 11:12:47;;;;;;;3.67;1.33;;;20.30;77.20;;;;;;5003462;28;20085;-95
2022/10/14 11:15:19;;;;;;;;;;;20.50;77.20;;;;;;4988973;28;20022;-94
2022/10/14 11:17:57;;;;;;;11.73;1.15;;;20.70;76.60;;;;;;4986370;28;19914;-94
2022/10/14 11:20:50;;;;;;;5.38;1.02;;;20.80;75.70;;;;;;5004241;28;20026;-95
2022/10/14 11:23:34;;;;;;;2.92;0.95;;;21.10;75.20;;;;;;4984926;28;20068;-95
2022/10/14 11:26:27;;;;;;;4.90;0.80;;;21.00;73.80;;;;;;4986793;28;20025;-95
2022/10/14 11:29:22;;;;;;;3.53;1.00;;;20.90;73.10;;;;;;4985483;28;20038;-95
2022/10/14 11:32:15;;;;;;;3.20;0.90;;;20.60;72.70;;;;;;4984610;28;20038;-94
2022/10/14 11:35:01;;;;;;;3.55;0.95;;;20.60;73.20;;;;;;4985639;28;20050;-95
2022/10/14 11:38:10;;;;;;;12.23;1.15;;;20.80;73.50;;;;;;4986304;28;20034;-94
2022/10/14 11:40:42;;;;;;;5.95;0.98;;;21.30;72.70;;;;;;4946486;28;20081;-94
2022/10/14 11:43:28;;;;;;;2.75;0.80;;;21.30;70.80;;;;;;4991554;28;20065;-95
2022/10/14 11:46:12;;;;;;;3.15;1.08;;;21.20;70.90;;;;;;4995057;28;20038;-95
2022/10/14 11:48:53;;;;;;;5.95;1.00;;;20.70;71.30;;;;;;4994162;28;20030;-96
2022/10/14 11:51:44;;;;;;;7.50;1.30;;;20.30;71.90;;;;;;4996052;28;20042;-95
2022/10/14 11:54:41;;;;;;;4.57;0.98;;;20.20;72.90;;;;;;5005139;28;20038;-94
2022/10/14 11:57:11;;;;;;;8.65;1.95;;;20.00;73.50;;;;;;4995496;28;20142;-94
2022/10/14 12:00:19;;;;;;;4.60;0.73;;;20.20;73.80;;;;;;4996671;28;20049;-94
2022/10/14 12:03:12;;;;;;;7.18;1.30;;;20.40;73.60;;;;;;4995784;28;20029;-94
2022/10/14 12:05:41;;;;;;;5.68;1.15;;;20.60;73.00;;;;;;4996038;28;20022;-93
2022/10/14 12:08:26;;;;;;;3.30;0.90;;;20.80;72.50;;;;;;4992752;28;20117;-95
2022/10/14 12:11:29;;;;;;;4.47;1.38;;;20.90;71.80;;;;;;5013299;28;20089;-95
2022/10/14 12:14:32;;;;;;;3.85;1.20;;;21.20;71.00;;;;;;4983031;28;20038;-95
2022/10/14 12:17:00;;;;;;;3.42;1.20;;;21.30;70.40;;;;;;4985194;28;20491;-95
2022/10/14 12:19:28;;;;;;;5.18;0.90;;;21.40;70.00;;;;;;4986242;28;20026;-94
2022/10/14 12:22:17;;;;;;;4.65;1.05;;;21.60;69.30;;;;;;5009174;28;20112;-94
2022/10/14 12:24:49;;;;;;;3.75;0.85;;;21.60;69.10;;;;;;4993634;28;20037;-96
2022/10/14 12:27:18;;;;;;;3.63;0.88;;;21.80;69.40;;;;;;4991494;28;20254;-93
2022/10/14 12:29:46;;;;;;;2.60;0.88;;;22.00;69.20;;;;;;4989481;28;20049;-94
2022/10/14 12:32:20;;;;;;;4.60;1.45;;;22.10;68.60;;;;;;5000527;28;20086;-93
2022/10/14 12:34:57;;;;;;;6.10;1.20;;;22.10;68.20;;;;;;4992905;28;20030;-96
2022/10/14 12:37:33;;;;;;;3.15;1.23;;;22.00;67.90;;;;;;4987695;28;20094;-96
2022/10/14 12:40:05;;;;;;;4.55;1.50;;;22.10;68.10;;;;;;4971695;28;20036;-96
2022/10/14 12:43:00;;;;;;;3.85;1.60;;;22.40;68.00;;;;;;4979763;28;20118;-95
2022/10/14 12:45:29;;;;;;;2.17;0.90;;;22.80;67.20;;;;;;4990986;28;20038;-96
2022/10/14 12:48:15;;;;;;;4.20;1.30;;;22.60;65.80;;;;;;4983012;28;20447;-96
2022/10/14 12:50:44;;;;;;;2.97;1.17;;;22.10;66.70;;;;;;4982723;28;20120;-96
2022/10/14 12:53:30;;;;;;;5.30;0.90;;;21.80;67.50;;;;;;4987785;28;20030;-96
2022/10/14 12:56:01;;;;;;;3.85;1.17;;;21.50;68.70;;;;;;4970246;28;20060;-95
2022/10/14 12:58:40;;;;;;;6.60;1.00;;;21.30;69.30;;;;;;4982124;28;20038;-96
2022/10/14 13:01:16;;;;;;;4.53;1.25;;;21.10;70.00;;;;;;4989494;28;20062;-95
2022/10/14 13:03:54;;;;;;;7.35;0.90;;;20.70;70.60;;;;;;4970081;28;20054;-95
2022/10/14 13:06:41;;;;;;;6.78;1.20;;;20.30;71.50;;;;;;4974670;28;20018;-94
2022/10/14 13:09:10;;;;;;;6.60;1.38;;;19.80;73.00;;;;;;4982833;28;20060;-93
2022/10/14 13:11:37;;;;;;;4.55;0.88;;;19.40;74.30;;;;;;4981972;28;20514;-93
2022/10/14 13:14:24;;;;;;;1.92;0.98;;;19.00;75.80;;;;;;4980119;28;20412;-95
2022/10/14 13:16:50;;;;;;;6.50;0.95;;;18.60;77.40;;;;;;4995669;28;20030;-94
2022/10/14 13:19:31;;;;;;;3.13;0.95;;;18.40;78.40;;;;;;4999335;28;20465;-95
2022/10/14 13:21:57;;;;;;;3.90;0.73;;;18.20;80.00;;;;;;4990344;28;20029;-95